Wheelersburg, OH (45694)

1:18 PM EDT on July 30, 2014 (GMT -0400)
Thomas Hollow (KOHLUCAS2) Elev 719 ft | 38.89 °N, 82.97 °W | Change Station

Current weather conditions updated 2 minutes ago

Mostly Cloudy
Mostly Cloudy
76.1 °F
Feels Like 76 °F
N
3.1
Wind Variable Wind from SSE
Gusts 5.8 mph

Today is forecast to be Warmer than yesterday. Scattered thunderstorms possible.

Today
High -- | Low -- °F
--% Chance of Precip.
Yesterday
High -- | Low -- °F
Precip. -- in
6:30 AM 8:44 PM
Waxing Crescent, 12% visible
Pressure 30.08 in
Visibility 10.0 miles
Clouds Scattered Clouds 3200 ft
Mostly Cloudy 4400 ft
Heat Index 76 °F
Dew Point 22 °F
Humidity 13%
Rainfall 0.00 in
Snow Depth Not available.
UV 6 out of 12
Pollen 5.10 out of 12
Air Quality Not available.
Flu Activity Not available.
METAR KHTS 301651Z VRB03KT 10SM SCT032 BKN044 22/16 A3009 RMK AO2 SLP185 T02220156

More Conditions Fewer Conditions

Pressure 30.08 in
Visibility 10.0 miles
Clouds Scattered Clouds 3200 ft
Mostly Cloudy 4400 ft
Heat Index 76 °F
Dew Point 22 °F
Humidity 13%
Rainfall 0.00 in
Snow Depth Not available.
UV 6 out of 12
Pollen 5.10 out of 12
Air Quality Not available.
Flu Activity Not available.
METAR KHTS 301651Z VRB03KT 10SM SCT032 BKN044 22/16 A3009 RMK AO2 SLP185 T02220156

More Conditions Fewer Conditions

10-Day Weather Forecast

Almanac

Astronomy

Jul. 30, 2014 Rise Set
Actual Time 6:30 AM EDT 8:44 PM EDT
Civil Twilight 6:01 AM EDT 9:13 PM EDT
Nautical Twilight 5:24 AM EDT 9:50 PM EDT
Astronomical Twilight 4:44 AM EDT 10:29 PM EDT
Moon 9:58 AM EDT 10:29 PM EDT
Length of Visible Light 15h 12m
Length of Day
14h 13m
Tomorrow will be 1m 52s shorter.
Waxing Crescent, 12% of the Moon is Illuminated
Today
Waxing Crescent
Aug 3
First Quarter
Aug 10
Full
Aug 17
Last Quarter
Aug 25
New

Today's Extremes

State Highs State Lows

Community

WunderPhotos

Upload Photos

1,739,139 photos uploaded!

Nearby

Snow Depth

Station Depth Elevation
No new snow has been reported.

Earthquake Activity

City Distance Mag. Time & Date
No recent earthquake activity has been reported nearby.
Minimum magnitude displayed is 2.5.

Coastal Water Temperatures

Place Temperature
No Stations Reporting

Nearby Weather Stations

Station Location Temp. Heat Index Dew Point Humidity Wind Precip. Elev Updated Type
Thomas Hollow, Lucasville, OH 76.1 °F 76 °F 22 °F 13% SSE  at  3.1 mph 0.00 in / hr 719 ft 1:15 PM EDT Normal
RAWS SHAWNEE OH, Friendship, OH 76 °F 78 °F 62 °F 62% SSW  at  3 mph 0.00 in / hr 1067 ft 12:24 PM EDT MADIS
SouthAshland, Ashland, KY 76.6 °F 78 °F 61 °F 58% West  at  0.0 mph 0.00 in / hr 700 ft 1:17 PM EDT Rapid Fire
Boy Scout from Ashland, Ashland, KY 78.7 °F 81 °F 65 °F 63% WSW  at  2.0 mph 0.00 in / hr 689 ft 1:18 PM EDT Normal
Sherwood Forest, Ashland, KY 75.7 °F 78 °F 63 °F 65% SE  at  0.7 mph 0.00 in / hr 673 ft 1:18 PM EDT Rapid Fire

Show More Stations Show Fewer Stations